Cape Bata — V7EF2 — position and weather

sailwx.info

Track history (hours):
 
Tides and Currents Weather Stations Pressure Air Temp Water Temp Dewpoint Dewpoint Depression Visibility Wind Speed Wind Dir Waves Ship Positions

Cape Bata

Last reported at 2014-Nov-12 18:12 UTC. Time now 2014-Nov-28 21:43 UTC.
Position N 36°12' W 122°41'.
Warning: this ship's position is 16 days out of date.

Length 274 m; draft 9.6 m.

Type: Tanker. MMSI: 538090162.

Date/timePositionNaut miles runAvg speedWind from/ knotsBaromVisibWave heightAir tempDewpointWater temp
2014-Nov-12 18:12N 36°12' W 122°41'5 8.1
2014-Nov-12 17:32N 36°17' W 122°41'8 8.2
2014-Nov-12 16:33N 36°25' W 122°41'16 8.0
2014-Nov-12 14:34N 36°40' W 122°48'9 8.3
2014-Nov-12 13:31N 36°48' W 122°52'16 8.0
2014-Nov-12 11:33N 37°02' W 123°02'24 7.9
2014-Nov-12 08:29N 37°26' W 123°10'1313.9
2014-Nov-12 07:33N 37°36' W 123°00'1413.7
2014-Nov-12 06:33N 37°44' W 122°46'1212.0
2014-Nov-12 05:33N 37°48' W 122°32'1111.2
2014-Nov-12 04:33N 37°58' W 122°26'1110.9
2014-Nov-12 03:33N 38°04' W 122°14'6 0.2
2014-Nov-10 21:05N 38°02' W 122°07'2 3.2
2014-Nov-10 20:20N 38°03' W 122°10'810.2
2014-Nov-10 19:33N 38°03' W 122°21'1010.2
2014-Nov-10 18:33N 37°53' W 122°26'6 5.6
2014-Nov-10 17:33N 37°49' W 122°30'1211.7
2014-Nov-10 16:33N 37°43' W 122°43'1111.2
2014-Nov-10 15:33N 37°37' W 122°54'1111.5
2014-Nov-10 14:33N 37°29' W 123°05'16 7.3
2014-Nov-10 12:21N 37°13' W 123°10'8 9.8
2014-Nov-10 11:30N 37°05' W 123°07'1212.2
2014-Nov-10 10:33N 36°55' W 123°02'1312.8
2014-Nov-10 09:30N 36°42' W 122°56'8313.2
2014-Nov-10 03:15N 35°24' W 122°22'10812.4
2014-Nov-09 18:33N 33°44' W 121°32'1412.3
2014-Nov-09 17:23N 33°32' W 121°22'4712.3
2014-Nov-09 13:33N 32°53' W 120°50'1612.3
2014-Nov-09 12:15N 32°40' W 120°40'912.0
2014-Nov-09 11:31N 32°33' W 120°34'1212.3
2014-Nov-09 10:32N 32°23' W 120°26'1111.0
2014-Nov-09 09:33N 32°16' W 120°16'1312.6
2014-Nov-09 08:33N 32°17' W 120°01'1312.9
2014-Nov-09 07:33N 32°18' W 119°46'1312.9
2014-Nov-09 06:33N 32°18' W 119°31'1312.7
2014-Nov-09 05:33N 32°19' W 119°15'1312.8
2014-Nov-09 04:33N 32°19' W 119°00'1312.6
2014-Nov-09 03:33N 32°20' W 118°45'1212.4
2014-Nov-09 02:33N 32°20' W 118°31'1211.9
2014-Nov-09 01:34N 32°21' W 118°17'1111.1
2014-Nov-09 00:34N 32°22' W 118°03'1212.0
2014-Nov-08 23:33N 32°31' W 117°55'1111.3
2014-Nov-08 22:33N 32°42' W 117°51'1111.5
2014-Nov-08 21:33N 32°53' W 117°51'1211.8
2014-Nov-08 20:33N 33°04' W 117°56'1211.9
2014-Nov-08 19:33N 33°15' W 118°03'1211.9
2014-Nov-08 18:33N 33°26' W 118°09'1111.0
2014-Nov-08 17:33N 33°35' W 118°16'1111.2
2014-Nov-08 16:33N 33°40' W 118°28'9 8.6
2014-Nov-08 15:33N 33°48' W 118°32'7 7.3
2014-Nov-08 14:33N 33°54' W 118°27'0 0.2
2014-Nov-08 13:32N 33°54' W 118°27'0 0.0
2014-Nov-08 12:33N 33°54' W 118°27'0 0.0
2014-Nov-08 11:33N 33°54' W 118°27'0 0.0
2014-Nov-08 10:30N 33°54' W 118°27'0 0.0
2014-Nov-08 09:33N 33°54' W 118°27'0 0.0
2014-Nov-08 08:33N 33°54' W 118°27'0 0.0
2014-Nov-08 07:33N 33°54' W 118°27'0 0.0
2014-Nov-08 06:30N 33°54' W 118°27'0 0.0
2014-Nov-08 05:33N 33°54' W 118°27'0 0.0
2014-Nov-08 04:33N 33°54' W 118°27'0 0.0
2014-Nov-08 03:33N 33°54' W 118°27'0 0.0
2014-Nov-08 02:30N 33°54' W 118°27'0 0.0
2014-Nov-08 01:30N 33°54' W 118°27'0 0.0
2014-Nov-08 00:33N 33°54' W 118°27'0 0.0
2014-Nov-07 23:30N 33°54' W 118°27'0 0.0
2014-Nov-07 22:34N 33°54' W 118°27'0 0.0
2014-Nov-07 21:33N 33°54' W 118°27'0 0.0
2014-Nov-07 20:33N 33°54' W 118°27'0 0.1
2014-Nov-07 19:34N 33°54' W 118°27'1 1.5
2014-Nov-07 18:33N 33°53' W 118°27'4 3.8
2014-Nov-07 17:33N 33°50' W 118°30'9 9.2
2014-Nov-07 16:34N 33°41' W 118°26'1010.4
2014-Nov-07 15:34N 33°37' W 118°15'9 9.4
2014-Nov-07 14:34N 33°31' W 118°07'1110.7
2014-Nov-07 13:33N 33°20' W 118°03'1111.0
2014-Nov-07 12:34N 33°10' W 117°59'8 8.3
2014-Nov-07 11:34N 33°02' W 117°55'7 7.3
2014-Nov-07 10:34N 32°55' W 117°52'9 9.1
2014-Nov-07 09:33N 32°47' W 117°49'1313.0
2014-Nov-07 08:34N 32°34' W 117°45'1313.3
2014-Nov-07 07:34N 32°26' W 117°57'1313.5
2014-Nov-07 06:33N 32°17' W 118°10'1313.3
2014-Nov-07 05:34N 32°08' W 118°21'1313.3
2014-Nov-07 04:33N 31°60' W 118°33'2913.3
2014-Nov-07 02:23N 31°41' W 118°59'24 7.7
2014-Nov-06 23:18N 31°25' W 119°20'2 0.7
2014-Nov-06 21:10N 31°27' W 119°21'0 0.6
2014-Nov-06 20:33N 31°27' W 119°22'1 0.7
2014-Nov-06 19:17N 31°28' W 119°22'0 0.6
2014-Nov-06 18:33N 31°28' W 119°23'1 0.6
2014-Nov-06 17:34N 31°29' W 119°23'1 0.5
2014-Nov-06 16:33N 31°29' W 119°23'0 0.3
2014-Nov-06 15:34N 31°29' W 119°24'0 0.2
2014-Nov-06 14:33N 31°29' W 119°24'0 0.2
2014-Nov-06 13:33N 31°30' W 119°24'0 0.4
2014-Nov-06 12:34N 31°30' W 119°23'0 0.4
2014-Nov-06 11:33N 31°30' W 119°23'1 0.6
2014-Nov-06 10:33N 31°31' W 119°23'1 0.8
2014-Nov-06 09:33N 31°32' W 119°23'1 1.0
2014-Nov-06 08:33N 31°33' W 119°23'1 1.0
2014-Nov-06 07:34N 31°34' W 119°22'1 1.0
2014-Nov-06 06:34N 31°35' W 119°22'1 1.0
2014-Nov-06 05:33N 31°36' W 119°22'1 0.9
2014-Nov-06 04:33N 31°37' W 119°23'2 0.8
2014-Nov-06 02:32N 31°38' W 119°23'1 0.6
2014-Nov-06 01:33N 31°39' W 119°23'3 2.1
2014-Nov-06 00:10N 31°41' W 119°24'1 1.3
2014-Nov-05 23:33N 31°42' W 119°24'3 3.0
2014-Nov-05 22:33N 31°45' W 119°25'1 0.9
2014-Nov-05 21:15N 31°46' W 119°26'1 0.8
2014-Nov-05 20:33N 31°46' W 119°26'1 1.0
2014-Nov-05 19:30N 31°47' W 119°27'1 0.7
2014-Nov-05 18:29N 31°48' W 119°27'1 0.8
2014-Nov-05 17:33N 31°49' W 119°28'1 0.7
2014-Nov-05 16:33N 31°49' W 119°28'1 0.8
2014-Nov-05 15:32N 31°50' W 119°28'1 1.1
2014-Nov-05 14:33N 31°51' W 119°28'1 1.5
2014-Nov-05 13:34N 31°53' W 119°29'1 1.4
2014-Nov-05 12:34N 31°54' W 119°29'1 1.2
2014-Nov-05 11:33N 31°55' W 119°30'1 1.3
2014-Nov-05 10:33N 31°56' W 119°30'1 1.4
2014-Nov-05 09:33N 31°58' W 119°31'1 1.5
2014-Nov-05 08:33N 31°59' W 119°31'1 1.4
2014-Nov-05 07:33N 32°00' W 119°32'1 1.4
2014-Nov-05 06:33N 32°01' W 119°33'1 1.2
2014-Nov-05 05:33N 32°02' W 119°34'1 1.2
2014-Nov-05 04:33N 32°03' W 119°34'1 1.4
2014-Nov-05 03:33N 32°05' W 119°35'1 1.3
2014-Nov-05 02:33N 32°05' W 119°37'1 1.2
2014-Nov-05 01:33N 32°06' W 119°38'2 1.5
2014-Nov-05 00:33N 32°07' W 119°39'4 4.2
2014-Nov-04 23:32N 32°10' W 119°43'5 4.8
2014-Nov-04 22:33N 32°12' W 119°48'1 0.8
2014-Nov-04 21:33N 32°11' W 119°49'0 0.0
2014-Nov-04 19:33N 32°11' W 119°49'3 2.3
2014-Nov-04 18:08N 32°14' W 119°50'1 1.7
2014-Nov-04 17:33N 32°15' W 119°50'8 8.1
2014-Nov-04 16:33N 32°15' W 119°40'1 1.4
2014-Nov-04 15:33N 32°15' W 119°42'1 1.3
2014-Nov-04 14:33N 32°15' W 119°43'1 1.3
2014-Nov-04 13:33N 32°16' W 119°45'1 1.2
2014-Nov-04 12:33N 32°16' W 119°46'1 1.3
2014-Nov-04 11:33N 32°17' W 119°48'1 1.5
2014-Nov-04 10:33N 32°18' W 119°49'21 4.0
2014-Nov-04 05:17N 32°15' W 120°13'6 7.8
2014-Nov-04 04:33N 32°14' W 120°20'15 7.7
2014-Nov-04 02:32N 32°13' W 120°38'8 7.7
2014-Nov-04 01:33N 32°13' W 120°47'  
Track history (hours):
 
Tides and Currents Weather Stations Pressure Air Temp Water Temp Dewpoint Dewpoint Depression Visibility Wind Speed Wind Dir Waves Ship Positions

Cape Bata

Last reported at 2014-Nov-12 18:12 UTC. Time now 2014-Nov-28 21:43 UTC.
Position N 36°12' W 122°41'.
Warning: this ship's position is 16 days out of date.

Length 274 m; draft 9.6 m.

Type: Tanker. MMSI: 538090162.

Date/timePositionNaut miles runAvg speedWind from/ knotsBaromVisibWave heightAir tempDewpointWater temp
2014-Nov-12 18:12N 36°12' W 122°41'5 8.1
2014-Nov-12 17:32N 36°17' W 122°41'8 8.2
2014-Nov-12 16:33N 36°25' W 122°41'16 8.0
2014-Nov-12 14:34N 36°40' W 122°48'9 8.3
2014-Nov-12 13:31N 36°48' W 122°52'16 8.0
2014-Nov-12 11:33N 37°02' W 123°02'24 7.9
2014-Nov-12 08:29N 37°26' W 123°10'1313.9
2014-Nov-12 07:33N 37°36' W 123°00'1413.7
2014-Nov-12 06:33N 37°44' W 122°46'1212.0
2014-Nov-12 05:33N 37°48' W 122°32'1111.2
2014-Nov-12 04:33N 37°58' W 122°26'1110.9
2014-Nov-12 03:33N 38°04' W 122°14'6 0.2
2014-Nov-10 21:05N 38°02' W 122°07'2 3.2
2014-Nov-10 20:20N 38°03' W 122°10'810.2
2014-Nov-10 19:33N 38°03' W 122°21'1010.2
2014-Nov-10 18:33N 37°53' W 122°26'6 5.6
2014-Nov-10 17:33N 37°49' W 122°30'1211.7
2014-Nov-10 16:33N 37°43' W 122°43'1111.2
2014-Nov-10 15:33N 37°37' W 122°54'1111.5
2014-Nov-10 14:33N 37°29' W 123°05'16 7.3
2014-Nov-10 12:21N 37°13' W 123°10'8 9.8
2014-Nov-10 11:30N 37°05' W 123°07'1212.2
2014-Nov-10 10:33N 36°55' W 123°02'1312.8
2014-Nov-10 09:30N 36°42' W 122°56'8313.2
2014-Nov-10 03:15N 35°24' W 122°22'10812.4
2014-Nov-09 18:33N 33°44' W 121°32'1412.3
2014-Nov-09 17:23N 33°32' W 121°22'4712.3
2014-Nov-09 13:33N 32°53' W 120°50'1612.3
2014-Nov-09 12:15N 32°40' W 120°40'912.0
2014-Nov-09 11:31N 32°33' W 120°34'1212.3
2014-Nov-09 10:32N 32°23' W 120°26'1111.0
2014-Nov-09 09:33N 32°16' W 120°16'1312.6
2014-Nov-09 08:33N 32°17' W 120°01'1312.9
2014-Nov-09 07:33N 32°18' W 119°46'1312.9
2014-Nov-09 06:33N 32°18' W 119°31'1312.7
2014-Nov-09 05:33N 32°19' W 119°15'1312.8
2014-Nov-09 04:33N 32°19' W 119°00'1312.6
2014-Nov-09 03:33N 32°20' W 118°45'1212.4
2014-Nov-09 02:33N 32°20' W 118°31'1211.9
2014-Nov-09 01:34N 32°21' W 118°17'1111.1
2014-Nov-09 00:34N 32°22' W 118°03'1212.0
2014-Nov-08 23:33N 32°31' W 117°55'1111.3
2014-Nov-08 22:33N 32°42' W 117°51'1111.5
2014-Nov-08 21:33N 32°53' W 117°51'1211.8
2014-Nov-08 20:33N 33°04' W 117°56'1211.9
2014-Nov-08 19:33N 33°15' W 118°03'1211.9
2014-Nov-08 18:33N 33°26' W 118°09'1111.0
2014-Nov-08 17:33N 33°35' W 118°16'1111.2
2014-Nov-08 16:33N 33°40' W 118°28'9 8.6
2014-Nov-08 15:33N 33°48' W 118°32'7 7.3
2014-Nov-08 14:33N 33°54' W 118°27'0 0.2
2014-Nov-08 13:32N 33°54' W 118°27'0 0.0
2014-Nov-08 12:33N 33°54' W 118°27'0 0.0
2014-Nov-08 11:33N 33°54' W 118°27'0 0.0
2014-Nov-08 10:30N 33°54' W 118°27'0 0.0
2014-Nov-08 09:33N 33°54' W 118°27'0 0.0
2014-Nov-08 08:33N 33°54' W 118°27'0 0.0
2014-Nov-08 07:33N 33°54' W 118°27'0 0.0
2014-Nov-08 06:30N 33°54' W 118°27'0 0.0
2014-Nov-08 05:33N 33°54' W 118°27'0 0.0
2014-Nov-08 04:33N 33°54' W 118°27'0 0.0
2014-Nov-08 03:33N 33°54' W 118°27'0 0.0
2014-Nov-08 02:30N 33°54' W 118°27'0 0.0
2014-Nov-08 01:30N 33°54' W 118°27'0 0.0
2014-Nov-08 00:33N 33°54' W 118°27'0 0.0
2014-Nov-07 23:30N 33°54' W 118°27'0 0.0
2014-Nov-07 22:34N 33°54' W 118°27'0 0.0
2014-Nov-07 21:33N 33°54' W 118°27'0 0.0
2014-Nov-07 20:33N 33°54' W 118°27'0 0.1
2014-Nov-07 19:34N 33°54' W 118°27'1 1.5
2014-Nov-07 18:33N 33°53' W 118°27'4 3.8
2014-Nov-07 17:33N 33°50' W 118°30'9 9.2
2014-Nov-07 16:34N 33°41' W 118°26'1010.4
2014-Nov-07 15:34N 33°37' W 118°15'9 9.4
2014-Nov-07 14:34N 33°31' W 118°07'1110.7
2014-Nov-07 13:33N 33°20' W 118°03'1111.0
2014-Nov-07 12:34N 33°10' W 117°59'8 8.3
2014-Nov-07 11:34N 33°02' W 117°55'7 7.3
2014-Nov-07 10:34N 32°55' W 117°52'9 9.1
2014-Nov-07 09:33N 32°47' W 117°49'1313.0
2014-Nov-07 08:34N 32°34' W 117°45'1313.3
2014-Nov-07 07:34N 32°26' W 117°57'1313.5
2014-Nov-07 06:33N 32°17' W 118°10'1313.3
2014-Nov-07 05:34N 32°08' W 118°21'1313.3
2014-Nov-07 04:33N 31°60' W 118°33'2913.3
2014-Nov-07 02:23N 31°41' W 118°59'24 7.7
2014-Nov-06 23:18N 31°25' W 119°20'2 0.7
2014-Nov-06 21:10N 31°27' W 119°21'0 0.6
2014-Nov-06 20:33N 31°27' W 119°22'1 0.7
2014-Nov-06 19:17N 31°28' W 119°22'0 0.6
2014-Nov-06 18:33N 31°28' W 119°23'1 0.6
2014-Nov-06 17:34N 31°29' W 119°23'1 0.5
2014-Nov-06 16:33N 31°29' W 119°23'0 0.3
2014-Nov-06 15:34N 31°29' W 119°24'0 0.2
2014-Nov-06 14:33N 31°29' W 119°24'0 0.2
2014-Nov-06 13:33N 31°30' W 119°24'0 0.4
2014-Nov-06 12:34N 31°30' W 119°23'0 0.4
2014-Nov-06 11:33N 31°30' W 119°23'1 0.6
2014-Nov-06 10:33N 31°31' W 119°23'1 0.8
2014-Nov-06 09:33N 31°32' W 119°23'1 1.0
2014-Nov-06 08:33N 31°33' W 119°23'1 1.0
2014-Nov-06 07:34N 31°34' W 119°22'1 1.0
2014-Nov-06 06:34N 31°35' W 119°22'1 1.0
2014-Nov-06 05:33N 31°36' W 119°22'1 0.9
2014-Nov-06 04:33N 31°37' W 119°23'2 0.8
2014-Nov-06 02:32N 31°38' W 119°23'1 0.6
2014-Nov-06 01:33N 31°39' W 119°23'3 2.1
2014-Nov-06 00:10N 31°41' W 119°24'1 1.3
2014-Nov-05 23:33N 31°42' W 119°24'3 3.0
2014-Nov-05 22:33N 31°45' W 119°25'1 0.9
2014-Nov-05 21:15N 31°46' W 119°26'1 0.8
2014-Nov-05 20:33N 31°46' W 119°26'1 1.0
2014-Nov-05 19:30N 31°47' W 119°27'1 0.7
2014-Nov-05 18:29N 31°48' W 119°27'1 0.8
2014-Nov-05 17:33N 31°49' W 119°28'1 0.7
2014-Nov-05 16:33N 31°49' W 119°28'1 0.8
2014-Nov-05 15:32N 31°50' W 119°28'1 1.1
2014-Nov-05 14:33N 31°51' W 119°28'1 1.5
2014-Nov-05 13:34N 31°53' W 119°29'1 1.4
2014-Nov-05 12:34N 31°54' W 119°29'1 1.2
2014-Nov-05 11:33N 31°55' W 119°30'1 1.3
2014-Nov-05 10:33N 31°56' W 119°30'1 1.4
2014-Nov-05 09:33N 31°58' W 119°31'1 1.5
2014-Nov-05 08:33N 31°59' W 119°31'1 1.4
2014-Nov-05 07:33N 32°00' W 119°32'1 1.4
2014-Nov-05 06:33N 32°01' W 119°33'1 1.2
2014-Nov-05 05:33N 32°02' W 119°34'1 1.2
2014-Nov-05 04:33N 32°03' W 119°34'1 1.4
2014-Nov-05 03:33N 32°05' W 119°35'1 1.3
2014-Nov-05 02:33N 32°05' W 119°37'1 1.2
2014-Nov-05 01:33N 32°06' W 119°38'2 1.5
2014-Nov-05 00:33N 32°07' W 119°39'4 4.2
2014-Nov-04 23:32N 32°10' W 119°43'5 4.8
2014-Nov-04 22:33N 32°12' W 119°48'1 0.8
2014-Nov-04 21:33N 32°11' W 119°49'0 0.0
2014-Nov-04 19:33N 32°11' W 119°49'3 2.3
2014-Nov-04 18:08N 32°14' W 119°50'1 1.7
2014-Nov-04 17:33N 32°15' W 119°50'8 8.1
2014-Nov-04 16:33N 32°15' W 119°40'1 1.4
2014-Nov-04 15:33N 32°15' W 119°42'1 1.3
2014-Nov-04 14:33N 32°15' W 119°43'1 1.3
2014-Nov-04 13:33N 32°16' W 119°45'1 1.2
2014-Nov-04 12:33N 32°16' W 119°46'1 1.3
2014-Nov-04 11:33N 32°17' W 119°48'1 1.5
2014-Nov-04 10:33N 32°18' W 119°49'21 4.0
2014-Nov-04 05:17N 32°15' W 120°13'6 7.8
2014-Nov-04 04:33N 32°14' W 120°20'15 7.7
2014-Nov-04 02:32N 32°13' W 120°38'8 7.7
2014-Nov-04 01:33N 32°13' W 120°47'  

Dump ship's entire track history